sensor_id;sensor_type;location;lat;lon;timestamp;temperature;humidity
56184;DHT22;42086;53.170;6.980;2022-09-06T00:01:08;20.20;89.20
56184;DHT22;42086;53.170;6.980;2022-09-06T00:03:35;20.10;89.40
56184;DHT22;42086;53.170;6.980;2022-09-06T00:06:06;20.10;89.50
56184;DHT22;42086;53.170;6.980;2022-09-06T00:08:32;20.00;89.70
56184;DHT22;42086;53.170;6.980;2022-09-06T00:10:58;20.00;89.80
56184;DHT22;42086;53.170;6.980;2022-09-06T00:13:24;20.00;89.80
56184;DHT22;42086;53.170;6.980;2022-09-06T00:15:50;19.90;90.10
56184;DHT22;42086;53.170;6.980;2022-09-06T00:18:16;19.90;90.10
56184;DHT22;42086;53.170;6.980;2022-09-06T00:20:42;19.80;90.30
56184;DHT22;42086;53.170;6.980;2022-09-06T00:23:07;19.90;90.20
56184;DHT22;42086;53.170;6.980;2022-09-06T00:25:34;19.80;90.30
56184;DHT22;42086;53.170;6.980;2022-09-06T00:28:02;19.80;90.30
56184;DHT22;42086;53.170;6.980;2022-09-06T00:30:30;19.80;90.40
56184;DHT22;42086;53.170;6.980;2022-09-06T00:32:56;19.80;90.50
56184;DHT22;42086;53.170;6.980;2022-09-06T00:35:23;19.70;90.40
56184;DHT22;42086;53.170;6.980;2022-09-06T00:37:50;19.70;90.50
56184;DHT22;42086;53.170;6.980;2022-09-06T00:40:16;19.70;90.60
56184;DHT22;42086;53.170;6.980;2022-09-06T00:42:42;19.70;90.60
56184;DHT22;42086;53.170;6.980;2022-09-06T00:45:09;19.60;90.70
56184;DHT22;42086;53.170;6.980;2022-09-06T00:47:39;19.60;91.20
56184;DHT22;42086;53.170;6.980;2022-09-06T00:50:05;19.60;90.90
56184;DHT22;42086;53.170;6.980;2022-09-06T00:52:32;19.60;90.90
56184;DHT22;42086;53.170;6.980;2022-09-06T00:54:59;19.60;91.00
56184;DHT22;42086;53.170;6.980;2022-09-06T00:57:26;19.50;91.10
56184;DHT22;42086;53.170;6.980;2022-09-06T00:59:54;19.50;91.10
56184;DHT22;42086;53.170;6.980;2022-09-06T01:02:20;19.50;91.20
56184;DHT22;42086;53.170;6.980;2022-09-06T01:04:47;19.50;91.20
56184;DHT22;42086;53.170;6.980;2022-09-06T01:07:33;19.50;91.30
56184;DHT22;42086;53.170;6.980;2022-09-06T01:26:40;19.40;91.80
56184;DHT22;42086;53.170;6.980;2022-09-06T01:29:19;19.40;91.70
56184;DHT22;42086;53.170;6.980;2022-09-06T01:32:03;19.30;91.90
56184;DHT22;42086;53.170;6.980;2022-09-06T01:34:43;19.30;92.00
56184;DHT22;42086;53.170;6.980;2022-09-06T01:37:15;19.30;92.10
56184;DHT22;42086;53.170;6.980;2022-09-06T01:39:42;19.30;92.20
56184;DHT22;42086;53.170;6.980;2022-09-06T01:42:22;19.30;92.00
56184;DHT22;42086;53.170;6.980;2022-09-06T01:45:06;19.30;92.10
56184;DHT22;42086;53.170;6.980;2022-09-06T01:48:14;19.30;92.20
56184;DHT22;42086;53.170;6.980;2022-09-06T02:08:11;19.20;92.60
56184;DHT22;42086;53.170;6.980;2022-09-06T02:11:04;19.20;92.50
56184;DHT22;42086;53.170;6.980;2022-09-06T02:13:43;19.20;92.60
56184;DHT22;42086;53.170;6.980;2022-09-06T02:16:12;19.20;92.70
56184;DHT22;42086;53.170;6.980;2022-09-06T02:18:43;19.20;92.70
56184;DHT22;42086;53.170;6.980;2022-09-06T02:21:14;19.20;92.90
56184;DHT22;42086;53.170;6.980;2022-09-06T02:23:42;19.20;92.90
56184;DHT22;42086;53.170;6.980;2022-09-06T02:26:13;19.20;92.90
56184;DHT22;42086;53.170;6.980;2022-09-06T02:28:41;19.20;93.00
56184;DHT22;42086;53.170;6.980;2022-09-06T02:31:17;19.20;93.10
56184;DHT22;42086;53.170;6.980;2022-09-06T02:33:47;19.20;93.20
56184;DHT22;42086;53.170;6.980;2022-09-06T02:36:14;19.10;93.30
56184;DHT22;42086;53.170;6.980;2022-09-06T02:38:41;19.10;93.40
56184;DHT22;42086;53.170;6.980;2022-09-06T02:41:08;19.10;93.50
56184;DHT22;42086;53.170;6.980;2022-09-06T02:43:35;19.00;93.60
56184;DHT22;42086;53.170;6.980;2022-09-06T02:46:01;19.00;94.00
56184;DHT22;42086;53.170;6.980;2022-09-06T02:48:27;19.00;93.80
56184;DHT22;42086;53.170;6.980;2022-09-06T02:50:53;19.00;93.90
56184;DHT22;42086;53.170;6.980;2022-09-06T02:53:19;19.00;93.90
56184;DHT22;42086;53.170;6.980;2022-09-06T02:55:46;19.00;94.10
56184;DHT22;42086;53.170;6.980;2022-09-06T02:58:13;19.00;94.10
56184;DHT22;42086;53.170;6.980;2022-09-06T03:00:39;19.00;94.30
56184;DHT22;42086;53.170;6.980;2022-09-06T03:03:06;19.00;94.30
56184;DHT22;42086;53.170;6.980;2022-09-06T03:05:32;19.00;94.30
56184;DHT22;42086;53.170;6.980;2022-09-06T03:07:58;19.00;94.40
56184;DHT22;42086;53.170;6.980;2022-09-06T03:10:25;18.90;94.70
56184;DHT22;42086;53.170;6.980;2022-09-06T03:12:54;18.90;94.80
56184;DHT22;42086;53.170;6.980;2022-09-06T03:15:20;18.90;94.90
56184;DHT22;42086;53.170;6.980;2022-09-06T03:17:46;18.90;94.90
56184;DHT22;42086;53.170;6.980;2022-09-06T03:20:12;18.90;95.10
56184;DHT22;42086;53.170;6.980;2022-09-06T03:22:39;18.90;95.20
56184;DHT22;42086;53.170;6.980;2022-09-06T03:25:06;18.80;95.30
56184;DHT22;42086;53.170;6.980;2022-09-06T03:27:32;18.80;95.50
56184;DHT22;42086;53.170;6.980;2022-09-06T03:29:58;18.80;95.70
56184;DHT22;42086;53.170;6.980;2022-09-06T03:32:24;18.70;95.80
56184;DHT22;42086;53.170;6.980;2022-09-06T03:34:50;18.80;96.10
56184;DHT22;42086;53.170;6.980;2022-09-06T03:37:16;18.70;96.10
56184;DHT22;42086;53.170;6.980;2022-09-06T03:39:42;18.70;96.30
56184;DHT22;42086;53.170;6.980;2022-09-06T03:42:08;18.70;96.30
56184;DHT22;42086;53.170;6.980;2022-09-06T03:44:34;18.70;96.70
56184;DHT22;42086;53.170;6.980;2022-09-06T03:47:00;18.60;96.80
56184;DHT22;42086;53.170;6.980;2022-09-06T03:49:26;18.70;97.10
56184;DHT22;42086;53.170;6.980;2022-09-06T03:51:52;18.60;97.20
56184;DHT22;42086;53.170;6.980;2022-09-06T03:54:18;18.60;97.30
56184;DHT22;42086;53.170;6.980;2022-09-06T03:56:44;18.60;97.50
56184;DHT22;42086;53.170;6.980;2022-09-06T03:59:15;18.60;97.60
56184;DHT22;42086;53.170;6.980;2022-09-06T04:01:41;18.60;97.80
56184;DHT22;42086;53.170;6.980;2022-09-06T04:04:07;18.60;98.00
56184;DHT22;42086;53.170;6.980;2022-09-06T04:06:33;18.60;98.10
56184;DHT22;42086;53.170;6.980;2022-09-06T04:08:59;18.60;98.20
56184;DHT22;42086;53.170;6.980;2022-09-06T04:11:25;18.60;98.60
56184;DHT22;42086;53.170;6.980;2022-09-06T04:13:50;18.60;98.50
56184;DHT22;42086;53.170;6.980;2022-09-06T04:16:16;18.60;98.60
56184;DHT22;42086;53.170;6.980;2022-09-06T04:18:43;18.60;98.70
56184;DHT22;42086;53.170;6.980;2022-09-06T04:21:09;18.60;98.90
56184;DHT22;42086;53.170;6.980;2022-09-06T04:23:34;18.60;99.00
56184;DHT22;42086;53.170;6.980;2022-09-06T04:26:00;18.60;99.20
56184;DHT22;42086;53.170;6.980;2022-09-06T04:28:27;18.60;99.40
56184;DHT22;42086;53.170;6.980;2022-09-06T04:31:01;18.60;99.40
56184;DHT22;42086;53.170;6.980;2022-09-06T04:33:28;18.50;99.60
56184;DHT22;42086;53.170;6.980;2022-09-06T04:35:55;18.60;99.70
56184;DHT22;42086;53.170;6.980;2022-09-06T04:38:23;18.60;99.80
56184;DHT22;42086;53.170;6.980;2022-09-06T04:40:49;18.60;99.90
56184;DHT22;42086;53.170;6.980;2022-09-06T04:43:15;18.60;99.90
56184;DHT22;42086;53.170;6.980;2022-09-06T04:45:41;18.60;99.90
56184;DHT22;42086;53.170;6.980;2022-09-06T04:48:07;18.60;99.90
56184;DHT22;42086;53.170;6.980;2022-09-06T04:50:33;18.60;99.90
56184;DHT22;42086;53.170;6.980;2022-09-06T04:52:59;18.60;99.90
56184;DHT22;42086;53.170;6.980;2022-09-06T04:55:25;18.60;99.90
56184;DHT22;42086;53.170;6.980;2022-09-06T04:57:53;18.60;99.90
56184;DHT22;42086;53.170;6.980;2022-09-06T05:00:21;18.60;99.90
56184;DHT22;42086;53.170;6.980;2022-09-06T05:02:47;18.60;99.90
56184;DHT22;42086;53.170;6.980;2022-09-06T05:05:13;18.70;99.90
56184;DHT22;42086;53.170;6.980;2022-09-06T05:07:39;18.60;99.90
56184;DHT22;42086;53.170;6.980;2022-09-06T05:10:04;18.60;99.90
56184;DHT22;42086;53.170;6.980;2022-09-06T05:12:30;18.70;99.90
56184;DHT22;42086;53.170;6.980;2022-09-06T05:14:56;18.70;99.90
56184;DHT22;42086;53.170;6.980;2022-09-06T05:17:22;18.60;99.90
56184;DHT22;42086;53.170;6.980;2022-09-06T05:19:49;18.70;99.90
56184;DHT22;42086;53.170;6.980;2022-09-06T05:22:15;18.70;99.90
56184;DHT22;42086;53.170;6.980;2022-09-06T05:24:41;18.70;99.90
56184;DHT22;42086;53.170;6.980;2022-09-06T05:27:07;18.70;99.90
56184;DHT22;42086;53.170;6.980;2022-09-06T05:29:33;18.70;99.90
56184;DHT22;42086;53.170;6.980;2022-09-06T05:31:58;18.70;99.90
56184;DHT22;42086;53.170;6.980;2022-09-06T05:34:24;18.70;99.90
56184;DHT22;42086;53.170;6.980;2022-09-06T05:36:50;18.60;99.90
56184;DHT22;42086;53.170;6.980;2022-09-06T05:39:16;18.50;99.90
56184;DHT22;42086;53.170;6.980;2022-09-06T05:41:46;18.40;99.90
56184;DHT22;42086;53.170;6.980;2022-09-06T05:44:12;18.30;99.90
56184;DHT22;42086;53.170;6.980;2022-09-06T05:46:43;18.40;99.90
56184;DHT22;42086;53.170;6.980;2022-09-06T05:49:10;18.40;99.90
56184;DHT22;42086;53.170;6.980;2022-09-06T05:51:37;18.30;99.90
56184;DHT22;42086;53.170;6.980;2022-09-06T05:54:03;18.30;99.90
56184;DHT22;42086;53.170;6.980;2022-09-06T05:56:29;18.20;99.90
56184;DHT22;42086;53.170;6.980;2022-09-06T05:58:55;18.20;99.90
56184;DHT22;42086;53.170;6.980;2022-09-06T06:01:26;18.10;99.90
56184;DHT22;42086;53.170;6.980;2022-09-06T06:03:56;18.00;99.90
56184;DHT22;42086;53.170;6.980;2022-09-06T06:06:23;18.00;99.90
56184;DHT22;42086;53.170;6.980;2022-09-06T06:08:50;18.00;99.90
56184;DHT22;42086;53.170;6.980;2022-09-06T06:11:16;18.00;99.90
56184;DHT22;42086;53.170;6.980;2022-09-06T06:13:42;18.10;99.90
56184;DHT22;42086;53.170;6.980;2022-09-06T06:16:11;18.20;99.90
56184;DHT22;42086;53.170;6.980;2022-09-06T06:18:37;18.20;99.90
56184;DHT22;42086;53.170;6.980;2022-09-06T06:23:49;18.30;99.90
56184;DHT22;42086;53.170;6.980;2022-09-06T06:26:15;18.30;99.90
56184;DHT22;42086;53.170;6.980;2022-09-06T06:28:41;18.30;99.90
56184;DHT22;42086;53.170;6.980;2022-09-06T06:31:09;18.30;99.90
56184;DHT22;42086;53.170;6.980;2022-09-06T06:33:35;18.30;99.90
56184;DHT22;42086;53.170;6.980;2022-09-06T06:38:39;18.40;99.90
56184;DHT22;42086;53.170;6.980;2022-09-06T06:41:07;18.50;99.90
56184;DHT22;42086;53.170;6.980;2022-09-06T06:43:33;18.50;99.90
56184;DHT22;42086;53.170;6.980;2022-09-06T06:46:03;18.60;99.90
56184;DHT22;42086;53.170;6.980;2022-09-06T06:48:30;18.60;99.90
56184;DHT22;42086;53.170;6.980;2022-09-06T06:50:56;18.70;99.90
56184;DHT22;42086;53.170;6.980;2022-09-06T06:53:22;18.70;99.90
56184;DHT22;42086;53.170;6.980;2022-09-06T06:55:48;18.80;99.90
56184;DHT22;42086;53.170;6.980;2022-09-06T06:58:15;18.80;99.90
56184;DHT22;42086;53.170;6.980;2022-09-06T07:00:41;18.90;99.90
56184;DHT22;42086;53.170;6.980;2022-09-06T07:03:08;19.00;99.90
56184;DHT22;42086;53.170;6.980;2022-09-06T07:05:34;19.00;99.90
56184;DHT22;42086;53.170;6.980;2022-09-06T07:08:00;19.00;99.90
56184;DHT22;42086;53.170;6.980;2022-09-06T07:10:26;19.10;99.90
56184;DHT22;42086;53.170;6.980;2022-09-06T07:12:53;19.10;99.90
56184;DHT22;42086;53.170;6.980;2022-09-06T07:15:19;19.20;99.90
56184;DHT22;42086;53.170;6.980;2022-09-06T07:17:45;19.30;99.90
56184;DHT22;42086;53.170;6.980;2022-09-06T07:20:11;19.30;99.90
56184;DHT22;42086;53.170;6.980;2022-09-06T07:22:38;19.30;99.90
56184;DHT22;42086;53.170;6.980;2022-09-06T07:25:04;19.30;99.90
56184;DHT22;42086;53.170;6.980;2022-09-06T07:27:30;19.30;99.90
56184;DHT22;42086;53.170;6.980;2022-09-06T07:29:56;19.30;99.90
56184;DHT22;42086;53.170;6.980;2022-09-06T07:32:22;19.30;99.90
56184;DHT22;42086;53.170;6.980;2022-09-06T07:34:48;19.30;99.90
56184;DHT22;42086;53.170;6.980;2022-09-06T07:37:14;19.40;99.90
56184;DHT22;42086;53.170;6.980;2022-09-06T07:39:40;19.50;99.90
56184;DHT22;42086;53.170;6.980;2022-09-06T07:42:07;19.40;99.90
56184;DHT22;42086;53.170;6.980;2022-09-06T07:44:32;19.50;99.90
56184;DHT22;42086;53.170;6.980;2022-09-06T07:46:58;19.60;99.90
56184;DHT22;42086;53.170;6.980;2022-09-06T07:49:27;19.60;99.90
56184;DHT22;42086;53.170;6.980;2022-09-06T07:51:54;19.60;99.90
56184;DHT22;42086;53.170;6.980;2022-09-06T07:54:21;19.70;99.90
56184;DHT22;42086;53.170;6.980;2022-09-06T07:56:47;19.80;99.90
56184;DHT22;42086;53.170;6.980;2022-09-06T07:59:13;20.00;99.90
56184;DHT22;42086;53.170;6.980;2022-09-06T08:01:39;20.30;99.90
56184;DHT22;42086;53.170;6.980;2022-09-06T08:04:11;20.40;99.90
56184;DHT22;42086;53.170;6.980;2022-09-06T08:06:45;20.60;99.90
56184;DHT22;42086;53.170;6.980;2022-09-06T08:09:12;20.80;99.90
56184;DHT22;42086;53.170;6.980;2022-09-06T08:11:38;20.80;99.90
56184;DHT22;42086;53.170;6.980;2022-09-06T08:14:06;20.90;99.90
56184;DHT22;42086;53.170;6.980;2022-09-06T08:16:34;20.80;99.90
56184;DHT22;42086;53.170;6.980;2022-09-06T08:19:03;20.70;99.90
56184;DHT22;42086;53.170;6.980;2022-09-06T08:21:30;20.70;99.90
56184;DHT22;42086;53.170;6.980;2022-09-06T08:23:58;20.70;99.90
56184;DHT22;42086;53.170;6.980;2022-09-06T08:26:26;20.80;99.90
56184;DHT22;42086;53.170;6.980;2022-09-06T08:29:00;21.00;99.90
56184;DHT22;42086;53.170;6.980;2022-09-06T08:31:28;21.20;99.90
56184;DHT22;42086;53.170;6.980;2022-09-06T08:33:55;21.20;99.90
56184;DHT22;42086;53.170;6.980;2022-09-06T08:36:21;21.10;99.90
56184;DHT22;42086;53.170;6.980;2022-09-06T08:38:47;21.00;99.90
56184;DHT22;42086;53.170;6.980;2022-09-06T08:43:47;21.10;99.90
56184;DHT22;42086;53.170;6.980;2022-09-06T08:46:15;21.20;99.90
56184;DHT22;42086;53.170;6.980;2022-09-06T08:48:43;21.60;99.90
56184;DHT22;42086;53.170;6.980;2022-09-06T08:51:21;21.80;99.90
56184;DHT22;42086;53.170;6.980;2022-09-06T08:53:58;21.90;99.90
56184;DHT22;42086;53.170;6.980;2022-09-06T08:56:33;21.90;99.90
56184;DHT22;42086;53.170;6.980;2022-09-06T08:59:13;21.80;99.90
56184;DHT22;42086;53.170;6.980;2022-09-06T09:01:48;22.00;99.90
56184;DHT22;42086;53.170;6.980;2022-09-06T09:04:23;22.00;99.90
56184;DHT22;42086;53.170;6.980;2022-09-06T09:06:57;22.10;99.90
56184;DHT22;42086;53.170;6.980;2022-09-06T09:09:29;22.10;99.90
56184;DHT22;42086;53.170;6.980;2022-09-06T09:11:57;22.40;99.90
56184;DHT22;42086;53.170;6.980;2022-09-06T09:14:27;22.60;99.90
56184;DHT22;42086;53.170;6.980;2022-09-06T09:17:04;22.80;99.90
56184;DHT22;42086;53.170;6.980;2022-09-06T09:19:30;22.90;99.90
56184;DHT22;42086;53.170;6.980;2022-09-06T09:22:01;23.20;99.90
56184;DHT22;42086;53.170;6.980;2022-09-06T09:24:27;23.30;99.90
56184;DHT22;42086;53.170;6.980;2022-09-06T09:27:02;23.40;99.90
56184;DHT22;42086;53.170;6.980;2022-09-06T09:29:29;23.40;99.90
56184;DHT22;42086;53.170;6.980;2022-09-06T09:31:55;23.50;99.90
56184;DHT22;42086;53.170;6.980;2022-09-06T09:34:38;23.60;99.90
56184;DHT22;42086;53.170;6.980;2022-09-06T09:37:25;23.70;99.90
56184;DHT22;42086;53.170;6.980;2022-09-06T09:39:55;23.80;99.90
56184;DHT22;42086;53.170;6.980;2022-09-06T09:42:32;23.80;99.90
56184;DHT22;42086;53.170;6.980;2022-09-06T09:45:01;23.80;99.90
56184;DHT22;42086;53.170;6.980;2022-09-06T09:47:32;23.90;99.90
56184;DHT22;42086;53.170;6.980;2022-09-06T09:49:58;24.00;99.40
56184;DHT22;42086;53.170;6.980;2022-09-06T09:52:25;24.00;99.50
56184;DHT22;42086;53.170;6.980;2022-09-06T09:54:56;24.00;99.30
56184;DHT22;42086;53.170;6.980;2022-09-06T09:57:22;24.10;98.90
56184;DHT22;42086;53.170;6.980;2022-09-06T09:59:54;24.10;98.60
56184;DHT22;42086;53.170;6.980;2022-09-06T10:02:29;24.20;98.00
56184;DHT22;42086;53.170;6.980;2022-09-06T10:05:19;24.30;97.40
56184;DHT22;42086;53.170;6.980;2022-09-06T10:07:53;24.60;97.40
56184;DHT22;42086;53.170;6.980;2022-09-06T10:10:26;24.70;97.30
56184;DHT22;42086;53.170;6.980;2022-09-06T10:13:25;24.80;97.00
56184;DHT22;42086;53.170;6.980;2022-09-06T10:15:54;25.00;94.90
56184;DHT22;42086;53.170;6.980;2022-09-06T10:26:50;25.40;93.50
56184;DHT22;42086;53.170;6.980;2022-09-06T10:32:10;25.60;92.20
56184;DHT22;42086;53.170;6.980;2022-09-06T10:40:32;25.80;92.00
56184;DHT22;42086;53.170;6.980;2022-09-06T10:43:00;25.80;92.20
56184;DHT22;42086;53.170;6.980;2022-09-06T10:45:41;25.90;92.10
56184;DHT22;42086;53.170;6.980;2022-09-06T10:48:38;25.90;91.50
56184;DHT22;42086;53.170;6.980;2022-09-06T10:51:46;25.90;91.00
56184;DHT22;42086;53.170;6.980;2022-09-06T10:54:20;25.90;90.10
56184;DHT22;42086;53.170;6.980;2022-09-06T10:57:00;26.10;91.20
56184;DHT22;42086;53.170;6.980;2022-09-06T10:59:51;26.30;90.70
56184;DHT22;42086;53.170;6.980;2022-09-06T11:02:36;26.30;89.50
56184;DHT22;42086;53.170;6.980;2022-09-06T11:05:12;26.30;87.20
56184;DHT22;42086;53.170;6.980;2022-09-06T11:07:43;26.30;89.00
56184;DHT22;42086;53.170;6.980;2022-09-06T11:15:14;26.60;86.70
56184;DHT22;42086;53.170;6.980;2022-09-06T11:23:25;27.00;83.60
56184;DHT22;42086;53.170;6.980;2022-09-06T11:26:06;27.00;84.30
56184;DHT22;42086;53.170;6.980;2022-09-06T11:28:45;27.00;84.50
56184;DHT22;42086;53.170;6.980;2022-09-06T11:31:47;27.10;83.80
56184;DHT22;42086;53.170;6.980;2022-09-06T11:34:22;27.20;83.40
56184;DHT22;42086;53.170;6.980;2022-09-06T11:36:53;27.30;81.60
56184;DHT22;42086;53.170;6.980;2022-09-06T11:39:35;27.30;81.90
56184;DHT22;42086;53.170;6.980;2022-09-06T11:42:06;27.40;81.00
56184;DHT22;42086;53.170;6.980;2022-09-06T11:47:42;27.60;79.50
56184;DHT22;42086;53.170;6.980;2022-09-06T11:53:16;28.00;79.30
56184;DHT22;42086;53.170;6.980;2022-09-06T12:00:43;28.30;77.00
56184;DHT22;42086;53.170;6.980;2022-09-06T12:04:14;28.40;77.60
56184;DHT22;42086;53.170;6.980;2022-09-06T12:06:31;29.00;75.80
56184;DHT22;42086;53.170;6.980;2022-09-06T12:08:58;29.00;73.80
56184;DHT22;42086;53.170;6.980;2022-09-06T12:11:37;29.20;76.70
56184;DHT22;42086;53.170;6.980;2022-09-06T12:19:49;30.20;73.50
56184;DHT22;42086;53.170;6.980;2022-09-06T12:27:27;30.70;71.20
56184;DHT22;42086;53.170;6.980;2022-09-06T12:30:09;31.00;69.80
56184;DHT22;42086;53.170;6.980;2022-09-06T12:32:40;31.10;66.50
56184;DHT22;42086;53.170;6.980;2022-09-06T12:35:20;31.30;67.40
56184;DHT22;42086;53.170;6.980;2022-09-06T12:37:54;31.40;63.40
56184;DHT22;42086;53.170;6.980;2022-09-06T12:40:21;31.50;66.30
56184;DHT22;42086;53.170;6.980;2022-09-06T12:42:49;31.90;65.90
56184;DHT22;42086;53.170;6.980;2022-09-06T12:45:17;32.00;63.80
56184;DHT22;42086;53.170;6.980;2022-09-06T12:47:44;32.10;64.00
56184;DHT22;42086;53.170;6.980;2022-09-06T12:50:19;32.50;63.70
56184;DHT22;42086;53.170;6.980;2022-09-06T12:52:49;33.00;60.50
56184;DHT22;42086;53.170;6.980;2022-09-06T12:55:28;33.20;60.80
56184;DHT22;42086;53.170;6.980;2022-09-06T12:57:58;33.30;59.20
56184;DHT22;42086;53.170;6.980;2022-09-06T13:00:36;33.20;59.20
56184;DHT22;42086;53.170;6.980;2022-09-06T13:05:46;33.90;57.20
56184;DHT22;42086;53.170;6.980;2022-09-06T13:08:25;34.10;57.10
56184;DHT22;42086;53.170;6.980;2022-09-06T13:10:53;34.40;55.40
56184;DHT22;42086;53.170;6.980;2022-09-06T13:13:25;34.50;55.80
56184;DHT22;42086;53.170;6.980;2022-09-06T13:15:51;35.00;53.10
56184;DHT22;42086;53.170;6.980;2022-09-06T13:18:37;35.30;54.50
56184;DHT22;42086;53.170;6.980;2022-09-06T13:21:09;35.90;52.20
56184;DHT22;42086;53.170;6.980;2022-09-06T13:23:48;36.30;51.90
56184;DHT22;42086;53.170;6.980;2022-09-06T13:26:35;36.20;50.80
56184;DHT22;42086;53.170;6.980;2022-09-06T13:32:01;36.70;49.40
56184;DHT22;42086;53.170;6.980;2022-09-06T13:34:28;36.60;49.40
56184;DHT22;42086;53.170;6.980;2022-09-06T13:37:00;36.60;49.80
56184;DHT22;42086;53.170;6.980;2022-09-06T13:42:22;37.20;47.90
56184;DHT22;42086;53.170;6.980;2022-09-06T13:44:48;37.40;46.40
56184;DHT22;42086;53.170;6.980;2022-09-06T13:47:15;37.50;47.70
56184;DHT22;42086;53.170;6.980;2022-09-06T13:49:42;37.60;47.20
56184;DHT22;42086;53.170;6.980;2022-09-06T13:52:07;37.90;46.70
56184;DHT22;42086;53.170;6.980;2022-09-06T13:54:36;38.00;45.50
56184;DHT22;42086;53.170;6.980;2022-09-06T13:57:04;38.30;45.60
56184;DHT22;42086;53.170;6.980;2022-09-06T13:59:30;37.80;45.60
56184;DHT22;42086;53.170;6.980;2022-09-06T14:02:02;38.10;45.20
56184;DHT22;42086;53.170;6.980;2022-09-06T14:04:29;38.10;44.80
56184;DHT22;42086;53.170;6.980;2022-09-06T14:06:57;38.70;45.80
56184;DHT22;42086;53.170;6.980;2022-09-06T14:09:23;38.60;45.00
56184;DHT22;42086;53.170;6.980;2022-09-06T14:11:49;38.70;44.70
56184;DHT22;42086;53.170;6.980;2022-09-06T14:14:16;38.70;44.40
56184;DHT22;42086;53.170;6.980;2022-09-06T14:16:43;38.80;45.00
56184;DHT22;42086;53.170;6.980;2022-09-06T14:19:09;38.70;44.30
56184;DHT22;42086;53.170;6.980;2022-09-06T14:21:37;39.00;44.10
56184;DHT22;42086;53.170;6.980;2022-09-06T14:24:03;39.10;43.60
56184;DHT22;42086;53.170;6.980;2022-09-06T14:26:29;39.20;43.30
56184;DHT22;42086;53.170;6.980;2022-09-06T14:28:55;39.10;43.30
56184;DHT22;42086;53.170;6.980;2022-09-06T14:31:23;39.20;43.00
56184;DHT22;42086;53.170;6.980;2022-09-06T14:33:51;38.50;43.10
56184;DHT22;42086;53.170;6.980;2022-09-06T14:36:19;37.70;43.60
56184;DHT22;42086;53.170;6.980;2022-09-06T14:38:46;36.30;45.10
56184;DHT22;42086;53.170;6.980;2022-09-06T14:41:13;35.50;46.10
56184;DHT22;42086;53.170;6.980;2022-09-06T14:43:49;35.10;47.20
56184;DHT22;42086;53.170;6.980;2022-09-06T14:46:16;34.30;48.30
56184;DHT22;42086;53.170;6.980;2022-09-06T14:48:42;33.60;49.10
56184;DHT22;42086;53.170;6.980;2022-09-06T14:51:09;33.00;49.90
56184;DHT22;42086;53.170;6.980;2022-09-06T14:53:40;32.90;51.10
56184;DHT22;42086;53.170;6.980;2022-09-06T14:56:07;33.60;51.40
56184;DHT22;42086;53.170;6.980;2022-09-06T14:58:34;33.90;50.20
56184;DHT22;42086;53.170;6.980;2022-09-06T15:01:12;33.20;50.30
56184;DHT22;42086;53.170;6.980;2022-09-06T15:03:43;32.60;51.10
56184;DHT22;42086;53.170;6.980;2022-09-06T15:06:11;32.10;51.80
56184;DHT22;42086;53.170;6.980;2022-09-06T15:08:37;31.90;52.50
56184;DHT22;42086;53.170;6.980;2022-09-06T15:11:04;31.30;53.10
56184;DHT22;42086;53.170;6.980;2022-09-06T15:13:34;31.20;54.20
56184;DHT22;42086;53.170;6.980;2022-09-06T15:16:02;31.10;54.30
56184;DHT22;42086;53.170;6.980;2022-09-06T15:18:28;30.80;54.70
56184;DHT22;42086;53.170;6.980;2022-09-06T15:20:54;30.60;55.30
56184;DHT22;42086;53.170;6.980;2022-09-06T15:23:19;30.30;56.00
56184;DHT22;42086;53.170;6.980;2022-09-06T15:25:50;30.50;57.20
56184;DHT22;42086;53.170;6.980;2022-09-06T15:28:17;30.60;57.00
56184;DHT22;42086;53.170;6.980;2022-09-06T15:30:45;31.40;56.70
56184;DHT22;42086;53.170;6.980;2022-09-06T15:33:11;32.30;55.70
56184;DHT22;42086;53.170;6.980;2022-09-06T15:35:42;32.80;54.50
56184;DHT22;42086;53.170;6.980;2022-09-06T15:38:10;33.30;54.00
56184;DHT22;42086;53.170;6.980;2022-09-06T15:40:36;33.40;53.50
56184;DHT22;42086;53.170;6.980;2022-09-06T15:43:02;33.50;52.80
56184;DHT22;42086;53.170;6.980;2022-09-06T15:45:28;33.50;52.70
56184;DHT22;42086;53.170;6.980;2022-09-06T15:47:54;33.60;52.90
56184;DHT22;42086;53.170;6.980;2022-09-06T15:50:21;33.50;52.70
56184;DHT22;42086;53.170;6.980;2022-09-06T15:52:48;33.40;53.00
56184;DHT22;42086;53.170;6.980;2022-09-06T15:55:14;33.30;52.90
56184;DHT22;42086;53.170;6.980;2022-09-06T15:57:58;33.10;53.10
56184;DHT22;42086;53.170;6.980;2022-09-06T16:00:24;32.50;53.80
56184;DHT22;42086;53.170;6.980;2022-09-06T16:02:50;32.20;54.30
56184;DHT22;42086;53.170;6.980;2022-09-06T16:05:17;31.50;54.90
56184;DHT22;42086;53.170;6.980;2022-09-06T16:07:44;31.20;55.50
56184;DHT22;42086;53.170;6.980;2022-09-06T16:10:13;31.20;56.30
56184;DHT22;42086;53.170;6.980;2022-09-06T16:12:40;31.10;56.90
56184;DHT22;42086;53.170;6.980;2022-09-06T16:15:06;31.00;56.60
56184;DHT22;42086;53.170;6.980;2022-09-06T16:17:32;30.80;56.90
56184;DHT22;42086;53.170;6.980;2022-09-06T16:19:58;30.50;57.50
56184;DHT22;42086;53.170;6.980;2022-09-06T16:22:26;30.30;58.00
56184;DHT22;42086;53.170;6.980;2022-09-06T16:24:52;30.00;58.50
56184;DHT22;42086;53.170;6.980;2022-09-06T16:27:21;30.00;58.80
56184;DHT22;42086;53.170;6.980;2022-09-06T16:29:47;29.90;59.40
56184;DHT22;42086;53.170;6.980;2022-09-06T16:32:13;29.70;59.30
56184;DHT22;42086;53.170;6.980;2022-09-06T16:34:39;29.70;59.50
56184;DHT22;42086;53.170;6.980;2022-09-06T16:37:05;29.70;59.80
56184;DHT22;42086;53.170;6.980;2022-09-06T16:39:36;29.50;60.00
56184;DHT22;42086;53.170;6.980;2022-09-06T16:42:02;29.40;60.50
56184;DHT22;42086;53.170;6.980;2022-09-06T16:44:28;29.30;60.90
56184;DHT22;42086;53.170;6.980;2022-09-06T16:46:54;29.30;61.20
56184;DHT22;42086;53.170;6.980;2022-09-06T16:49:26;29.10;61.40
56184;DHT22;42086;53.170;6.980;2022-09-06T16:51:52;28.90;61.50
56184;DHT22;42086;53.170;6.980;2022-09-06T16:54:18;28.80;61.80
56184;DHT22;42086;53.170;6.980;2022-09-06T16:56:44;28.70;62.10
56184;DHT22;42086;53.170;6.980;2022-09-06T16:59:11;28.50;62.20
56184;DHT22;42086;53.170;6.980;2022-09-06T17:01:39;28.50;62.40
56184;DHT22;42086;53.170;6.980;2022-09-06T17:04:10;28.30;62.80
56184;DHT22;42086;53.170;6.980;2022-09-06T17:06:37;28.40;63.00
56184;DHT22;42086;53.170;6.980;2022-09-06T17:09:10;28.30;63.30
56184;DHT22;42086;53.170;6.980;2022-09-06T17:11:36;28.10;63.60
56184;DHT22;42086;53.170;6.980;2022-09-06T17:14:02;27.90;63.90
56184;DHT22;42086;53.170;6.980;2022-09-06T17:16:28;27.60;64.70
56184;DHT22;42086;53.170;6.980;2022-09-06T17:19:13;27.40;65.10
56184;DHT22;42086;53.170;6.980;2022-09-06T17:21:39;27.10;65.60
56184;DHT22;42086;53.170;6.980;2022-09-06T17:24:06;26.90;66.20